| time (UTC) | temp F | wind direction | speed MPH | gust MPH | rain 1hr in | rain 24hr in | rain mn in | humidity % | barometer mb |
| 20260510195247 | 61 | 222 | 7.0 | 11.0 | 0.00 | 0.12 | 0.12 | 48 | 1006.2 |
| 20260510194746 | 61 | 266 | 8.0 | 15.0 | 0.00 | 0.12 | 0.12 | 49 | 1006.0 |
| 20260510194244 | 62 | 281 | 13.0 | 26.0 | 0.00 | 0.12 | 0.12 | 45 | 1006.2 |
| 20260510193739 | 62 | 129 | 9.0 | 12.0 | 0.00 | 0.12 | 0.12 | 47 | 1006.1 |
| 20260510193234 | 61 | 229 | 9.0 | 17.0 | 0.00 | 0.12 | 0.12 | 46 | 1006.0 |
| 20260510192730 | 60 | 263 | 9.0 | 15.0 | 0.00 | 0.12 | 0.12 | 47 | 1006.1 |
| 20260510192225 | 61 | 268 | 11.0 | 17.0 | 0.00 | 0.12 | 0.12 | 52 | 1006.1 |
| 20260510191721 | 61 | 263 | 4.0 | 16.0 | 0.00 | 0.12 | 0.12 | 51 | 1006.1 |
| 20260510191218 | 60 | 247 | 17.0 | 19.0 | 0.00 | 0.12 | 0.12 | 53 | 1006.1 |
| 20260510190715 | 60 | 274 | 11.0 | 12.0 | 0.00 | 0.12 | 0.12 | 58 | 1006.1 |
| 20260510190213 | 60 | 268 | 11.0 | 23.0 | 0.00 | 0.12 | 0.12 | 56 | 1006.1 |
| 20260510185709 | 60 | 260 | 7.0 | 17.0 | 0.00 | 0.12 | 0.12 | 55 | 1006.1 |
| 20260510185208 | 60 | 275 | 12.0 | 16.0 | 0.00 | 0.12 | 0.12 | 59 | 1006.3 |
| 20260510184704 | 60 | 212 | 9.0 | 15.0 | 0.00 | 0.12 | 0.12 | 57 | 1006.3 |
| 20260510184200 | 61 | 252 | 4.0 | 13.0 | 0.00 | 0.12 | 0.12 | 60 | 1006.3 |
| 20260510183655 | 60 | 280 | 17.0 | 21.0 | 0.00 | 0.12 | 0.12 | 61 | 1006.1 |
| 20260510183150 | 59 | 245 | 7.0 | 13.0 | 0.00 | 0.12 | 0.12 | 65 | 1006.3 |
| 20260510182647 | 59 | 262 | 16.0 | 19.0 | 0.00 | 0.12 | 0.12 | 65 | 1006.4 |
| 20260510182143 | 59 | 194 | 10.0 | 15.0 | 0.00 | 0.12 | 0.12 | 67 | 1006.2 |
| 20260510181641 | 59 | 278 | 12.0 | 15.0 | 0.00 | 0.12 | 0.12 | 69 | 1006.2 |
| 20260510181137 | 59 | 331 | 4.0 | 17.0 | 0.00 | 0.12 | 0.12 | 71 | 1006.1 |
| 20260510180633 | 59 | 311 | 5.0 | 11.0 | 0.00 | 0.12 | 0.12 | 73 | 1006.0 |
| 20260510180131 | 59 | 269 | 9.0 | 19.0 | 0.00 | 0.12 | 0.12 | 72 | 1006.2 |
| 20260510175626 | 59 | 303 | 11.0 | 21.0 | 0.02 | 0.12 | 0.12 | 72 | 1006.0 |
| 20260510175122 | 59 | 264 | 17.0 | 17.0 | 0.02 | 0.12 | 0.12 | 70 | 1006.1 |
| 20260510174620 | 59 | 233 | 8.0 | 15.0 | 0.00 | 0.11 | 0.11 | 72 | 1006.0 |
| 20260510174117 | 60 | 130 | 3.0 | 5.0 | 0.00 | 0.11 | 0.11 | 78 | 1006.1 |
| 20260510173613 | 59 | 292 | 5.0 | 5.0 | 0.00 | 0.11 | 0.11 | 79 | 1006.0 |
| 20260510173109 | 57 | 128 | 8.0 | 11.0 | 0.00 | 0.11 | 0.11 | 78 | 1006.3 |
| 20260510172605 | 57 | 156 | 7.0 | 11.0 | 0.00 | 0.11 | 0.11 | 80 | 1006.2 |
| 20260510172101 | 57 | 334 | 4.0 | 13.0 | 0.00 | 0.11 | 0.11 | 80 | 1006.4 |
| 20260510171558 | 56 | 199 | 8.0 | 11.0 | 0.00 | 0.11 | 0.11 | 81 | 1006.6 |
| 20260510171056 | 55 | 207 | 3.0 | 7.0 | 0.00 | 0.11 | 0.11 | 83 | 1006.1 |
| 20260510170552 | 55 | 107 | 4.0 | 6.0 | 0.00 | 0.11 | 0.11 | 83 | 1006.3 |
| 20260510170049 | 55 | 180 | 3.0 | 9.0 | 0.00 | 0.11 | 0.11 | 82 | 1006.4 |
| 20260510165544 | 55 | 125 | 7.0 | 10.0 | 0.00 | 0.11 | 0.11 | 83 | 1006.4 |
| 20260510165041 | 55 | 125 | 7.0 | 8.0 | 0.00 | 0.11 | 0.11 | 84 | 1006.4 |
| 20260510164538 | 54 | 107 | 6.0 | 13.0 | 0.00 | 0.11 | 0.11 | 84 | 1006.2 |
| 20260510164034 | 54 | 242 | 3.0 | 6.0 | 0.00 | 0.11 | 0.11 | 86 | 1006.4 |
| 20260510163524 | 54 | 257 | 4.0 | 10.0 | 0.00 | 0.11 | 0.11 | 86 | 1006.3 |
| 20260510163020 | 54 | 239 | 4.0 | 12.0 | 0.00 | 0.11 | 0.11 | 87 | 1006.4 |
| 20260510162515 | 54 | 201 | 2.0 | 13.0 | 0.00 | 0.11 | 0.11 | 87 | 1006.1 |
| 20260510162012 | 54 | 204 | 9.0 | 11.0 | 0.00 | 0.11 | 0.11 | 88 | 1006.3 |
| 20260510161508 | 53 | 224 | 5.0 | 8.0 | 0.00 | 0.11 | 0.11 | 90 | 1006.1 |
| 20260510161005 | 53 | 163 | 5.0 | 8.0 | 0.00 | 0.11 | 0.11 | 90 | 1006.0 |
| 20260510160503 | 53 | 210 | 3.0 | 9.0 | 0.00 | 0.11 | 0.11 | 91 | 1006.1 |
| 20260510160000 | 53 | 220 | 6.0 | 8.0 | 0.00 | 0.11 | 0.11 | 92 | 1006.1 |
| 20260510155458 | 53 | 118 | 4.0 | 4.0 | 0.02 | 0.11 | 0.11 | 92 | 1006.2 |
| 20260510154955 | 53 | 131 | 0.0 | 2.0 | 0.02 | 0.11 | 0.11 | 92 | 1006.2 |
| 20260510154450 | 53 | 244 | 1.0 | 5.0 | 0.02 | 0.11 | 0.11 | 92 | 1006.2 |
| 20260510153949 | 52 | 272 | 3.0 | 4.0 | 0.02 | 0.11 | 0.11 | 92 | 1006.2 |
| 20260510153440 | 52 | 248 | 2.0 | 4.0 | 0.00 | 0.11 | 0.11 | 93 | 1006.3 |
| 20260510152937 | 52 | 118 | 4.0 | 6.0 | 0.02 | 0.11 | 0.11 | 93 | 1006.1 |
| 20260510152435 | 52 | 55 | 5.0 | 6.0 | 0.05 | 0.11 | 0.11 | 93 | 1006.2 |
| 20260510151931 | 52 | 120 | 2.0 | 2.0 | 0.17 | 0.10 | 0.10 | 93 | 1006.2 |
| 20260510151428 | 52 | 140 | 6.0 | 6.0 | 0.24 | 0.09 | 0.09 | 92 | 1006.4 |
| 20260510150925 | 52 | 125 | 2.0 | 3.0 | 0.24 | 0.07 | 0.07 | 91 | 1006.5 |
| 20260510150420 | 52 | 70 | 4.0 | 5.0 | 0.33 | 0.06 | 0.06 | 89 | 1006.3 |
| 20260510145916 | 53 | 56 | 2.0 | 4.0 | 0.14 | 0.02 | 0.02 | 87 | 1006.2 |
| 20260510145413 | 53 | 298 | 2.0 | 6.0 | 0.00 | 0.00 | 0.00 | 86 | 1006.1 |
| 20260510144910 | 53 | 133 | 8.0 | 10.0 | 0.00 | 0.00 | 0.00 | 85 | 1005.6 |
| 20260510144407 | 54 | 98 | 10.0 | 12.0 | 0.00 | 0.00 | 0.00 | 84 | 1005.7 |
| 20260510143907 | 54 | 43 | 9.0 | 10.0 | 0.00 | 0.00 | 0.00 | 86 | 1005.8 |
| 20260510143403 | 54 | 62 | 5.0 | 9.0 | 0.00 | 0.00 | 0.00 | 84 | 1005.9 |
| 20260510142900 | 54 | 114 | 4.0 | 10.0 | 0.00 | 0.00 | 0.00 | 83 | 1005.9 |
| 20260510142357 | 54 | 115 | 6.0 | 11.0 | 0.00 | 0.00 | 0.00 | 84 | 1005.9 |
| 20260510141854 | 54 | 124 | 6.0 | 10.0 | 0.00 | 0.00 | 0.00 | 83 | 1006.1 |
| 20260510141351 | 55 | 171 | 6.0 | 6.0 | 0.00 | 0.00 | 0.00 | 82 | 1005.9 |
| 20260510140848 | 54 | 55 | 7.0 | 9.0 | 0.00 | 0.00 | 0.00 | 84 | 1005.8 |
| 20260510140344 | 54 | 102 | 7.0 | 10.0 | 0.00 | 0.00 | 0.00 | 83 | 1005.8 |
| 20260510135843 | 54 | 60 | 7.0 | 13.0 | 0.00 | 0.00 | 0.00 | 84 | 1005.7 |
| 20260510135338 | 54 | 196 | 5.0 | 6.0 | 0.00 | 0.00 | 0.00 | 83 | 1005.7 |
| 20260510134837 | 53 | 136 | 4.0 | 9.0 | 0.00 | 0.00 | 0.00 | 84 | 1005.8 |
| 20260510134333 | 53 | 72 | 5.0 | 8.0 | 0.00 | 0.00 | 0.00 | 86 | 1005.8 |
| 20260510133830 | 52 | 154 | 7.0 | 9.0 | 0.00 | 0.00 | 0.00 | 88 | 1005.8 |
| 20260510133326 | 51 | 95 | 4.0 | 6.0 | 0.00 | 0.00 | 0.00 | 90 | 1006.1 |
| 20260510132821 | 51 | 139 | 5.0 | 6.0 | 0.00 | 0.00 | 0.00 | 90 | 1006.2 |
| 20260510132319 | 50 | 61 | 6.0 | 9.0 | 0.00 | 0.00 | 0.00 | 91 | 1005.8 |
| 20260510131816 | 50 | 61 | 8.0 | 12.0 | 0.00 | 0.00 | 0.00 | 91 | 1005.4 |
| 20260510131314 | 50 | 46 | 13.0 | 13.0 | 0.00 | 0.00 | 0.00 | 91 | 1005.5 |
| 20260510130810 | 50 | 68 | 7.0 | 8.0 | 0.00 | 0.00 | 0.00 | 91 | 1005.8 |
| 20260510130307 | 50 | 60 | 7.0 | 9.0 | 0.00 | 0.00 | 0.00 | 92 | 1005.8 |
| 20260510125803 | 50 | 54 | 8.0 | 12.0 | 0.00 | 0.00 | 0.00 | 92 | 1005.9 |
| 20260510125259 | 50 | 85 | 5.0 | 9.0 | 0.00 | 0.00 | 0.00 | 92 | 1005.9 |
| 20260510124756 | 50 | 82 | 5.0 | 10.0 | 0.00 | 0.00 | 0.00 | 92 | 1006.1 |
| 20260510124254 | 50 | 65 | 5.0 | 7.0 | 0.00 | 0.00 | 0.00 | 92 | 1006.0 |
| 20260510123749 | 50 | 99 | 4.0 | 7.0 | 0.00 | 0.00 | 0.00 | 92 | 1006.1 |
| 20260510123245 | 49 | 86 | 4.0 | 6.0 | 0.00 | 0.00 | 0.00 | 92 | 1005.9 |
| 20260510122741 | 49 | 112 | 7.0 | 11.0 | 0.00 | 0.00 | 0.00 | 92 | 1005.8 |
| 20260510122238 | 50 | 65 | 10.0 | 14.0 | 0.00 | 0.00 | 0.00 | 92 | 1005.7 |
| 20260510121734 | 49 | 70 | 7.0 | 12.0 | 0.00 | 0.00 | 0.00 | 92 | 1005.8 |
| 20260510121232 | 49 | 50 | 7.0 | 11.0 | 0.00 | 0.00 | 0.00 | 92 | 1005.6 |
| 20260510120729 | 49 | 49 | 6.0 | 7.0 | 0.00 | 0.00 | 0.00 | 93 | 1005.9 |
| 20260510120226 | 49 | 60 | 4.0 | 8.0 | 0.00 | 0.00 | 0.00 | 92 | 1005.9 |
| 20260510115721 | 49 | 80 | 3.0 | 6.0 | 0.00 | 0.00 | 0.00 | 92 | 1005.7 |
| 20260510115220 | 49 | 43 | 5.0 | 8.0 | 0.00 | 0.00 | 0.00 | 92 | 1005.7 |
| 20260510114714 | 49 | 66 | 5.0 | 11.0 | 0.00 | 0.00 | 0.00 | 92 | 1005.5 |
| 20260510114212 | 49 | 58 | 6.0 | 11.0 | 0.00 | 0.00 | 0.00 | 93 | 1005.7 |
| 20260510113707 | 49 | 138 | 7.0 | 7.0 | 0.00 | 0.00 | 0.00 | 94 | 1005.8 |
| 20260510113204 | 48 | 80 | 5.0 | 7.0 | 0.00 | 0.00 | 0.00 | 94 | 1005.5 |
| 20260510112700 | 48 | 125 | 6.0 | 8.0 | 0.00 | 0.00 | 0.00 | 95 | 1005.7 |
| 20260510112158 | 48 | 65 | 4.0 | 7.0 | 0.00 | 0.00 | 0.00 | 95 | 1005.8 |
| 20260510111648 | 48 | 103 | 2.0 | 9.0 | 0.00 | 0.00 | 0.00 | 95 | 1005.5 |
| 20260510111144 | 48 | 64 | 7.0 | 8.0 | 0.00 | 0.00 | 0.00 | 95 | 1005.6 |
| 20260510110639 | 48 | 102 | 3.0 | 4.0 | 0.00 | 0.00 | 0.00 | 95 | 1005.5 |
| 20260510110137 | 48 | 61 | 3.0 | 5.0 | 0.00 | 0.00 | 0.00 | 96 | 1005.0 |
| 20260510105633 | 48 | 56 | 6.0 | 11.0 | 0.00 | 0.00 | 0.00 | 96 | 1004.6 |
| 20260510105132 | 48 | 66 | 8.0 | 11.0 | 0.00 | 0.00 | 0.00 | 96 | 1005.0 |
| 20260510104630 | 47 | 101 | 5.0 | 8.0 | 0.00 | 0.00 | 0.00 | 96 | 1005.1 |
| 20260510104126 | 47 | 66 | 6.0 | 8.0 | 0.00 | 0.00 | 0.00 | 97 | 1004.9 |
| 20260510103623 | 47 | 65 | 6.0 | 6.0 | 0.00 | 0.00 | 0.00 | 97 | 1005.1 |
| 20260510103119 | 47 | 76 | 6.0 | 8.0 | 0.00 | 0.00 | 0.00 | 96 | 1005.2 |
| 20260510102615 | 47 | 87 | 3.0 | 6.0 | 0.00 | 0.00 | 0.00 | 96 | 1005.1 |
| 20260510102111 | 47 | 35 | 7.0 | 9.0 | 0.00 | 0.00 | 0.00 | 96 | 1005.0 |
| 20260510101609 | 47 | 72 | 6.0 | 9.0 | 0.00 | 0.00 | 0.00 | 96 | 1005.0 |
| 20260510101107 | 47 | 44 | 5.0 | 9.0 | 0.00 | 0.00 | 0.00 | 96 | 1004.9 |
| 20260510100603 | 46 | 89 | 4.0 | 9.0 | 0.00 | 0.00 | 0.00 | 96 | 1004.8 |
| 20260510100100 | 47 | 58 | 6.0 | 9.0 | 0.00 | 0.00 | 0.00 | 96 | 1004.7 |
| 20260510095556 | 47 | 78 | 7.0 | 10.0 | 0.00 | 0.00 | 0.00 | 96 | 1004.7 |
| 20260510095055 | 47 | 60 | 9.0 | 10.0 | 0.00 | 0.00 | 0.00 | 96 | 1004.5 |
| 20260510094550 | 47 | 56 | 6.0 | 7.0 | 0.00 | 0.00 | 0.00 | 96 | 1004.3 |
| 20260510094046 | 47 | 61 | 6.0 | 9.0 | 0.00 | 0.00 | 0.00 | 96 | 1004.4 |
| 20260510093542 | 47 | 77 | 5.0 | 8.0 | 0.00 | 0.00 | 0.00 | 96 | 1004.4 |
| 20260510093039 | 47 | 67 | 3.0 | 3.0 | 0.00 | 0.00 | 0.00 | 96 | 1004.2 |
| 20260510092536 | 46 | 92 | 3.0 | 6.0 | 0.00 | 0.00 | 0.00 | 96 | 1004.2 |
| 20260510092035 | 47 | 68 | 5.0 | 6.0 | 0.00 | 0.00 | 0.00 | 96 | 1004.2 |
| 20260510091532 | 46 | 74 | 4.0 | 5.0 | 0.00 | 0.00 | 0.00 | 96 | 1004.2 |
| 20260510091028 | 46 | 76 | 7.0 | 8.0 | 0.00 | 0.00 | 0.00 | 96 | 1003.7 |
| 20260510090526 | 47 | 51 | 5.0 | 6.0 | 0.00 | 0.00 | 0.00 | 96 | 1004.0 |
| 20260510090021 | 46 | 48 | 4.0 | 5.0 | 0.00 | 0.00 | 0.00 | 96 | 1004.3 |
| 20260510085521 | 46 | 75 | 4.0 | 9.0 | 0.00 | 0.00 | 0.00 | 96 | 1004.0 |
| 20260510085017 | 46 | 45 | 5.0 | 6.0 | 0.00 | 0.00 | 0.00 | 96 | 1003.8 |
| 20260510084514 | 46 | 101 | 3.0 | 6.0 | 0.00 | 0.00 | 0.00 | 96 | 1004.1 |
| 20260510084011 | 46 | 53 | 6.0 | 6.0 | 0.00 | 0.00 | 0.00 | 96 | 1004.4 |
| 20260510083508 | 46 | 80 | 5.0 | 6.0 | 0.00 | 0.00 | 0.00 | 96 | 1004.6 |
| 20260510083004 | 46 | 64 | 3.0 | 6.0 | 0.00 | 0.00 | 0.00 | 96 | 1004.5 |
| 20260510082501 | 46 | 60 | 4.0 | 5.0 | 0.00 | 0.00 | 0.00 | 96 | 1004.3 |
| 20260510082000 | 46 | 62 | 4.0 | 5.0 | 0.00 | 0.00 | 0.00 | 96 | 1004.3 |
| 20260510081456 | 46 | 82 | 4.0 | 6.0 | 0.00 | 0.00 | 0.00 | 96 | 1004.5 |
| 20260510080952 | 46 | 52 | 6.0 | 7.0 | 0.00 | 0.00 | 0.00 | 96 | 1004.7 |
| 20260510080450 | 46 | 74 | 7.0 | 9.0 | 0.00 | 0.00 | 0.00 | 96 | 1004.4 |
| 20260510075948 | 45 | 71 | 5.0 | 8.0 | 0.00 | 0.00 | 0.00 | 96 | 1004.4 |
| 20260510075446 | 46 | 67 | 6.0 | 9.0 | 0.00 | 0.00 | 0.00 | 96 | 1004.2 |
| 20260510074942 | 45 | 69 | 8.0 | 10.0 | 0.00 | 0.00 | 0.00 | 96 | 1004.4 |
| 20260510074440 | 45 | 62 | 6.0 | 9.0 | 0.00 | 0.00 | 0.00 | 96 | 1004.4 |
| 20260510073936 | 45 | 73 | 9.0 | 11.0 | 0.00 | 0.00 | 0.00 | 96 | 1004.3 |
| 20260510073431 | 45 | 61 | 8.0 | 10.0 | 0.00 | 0.00 | 0.00 | 96 | 1004.5 |
| 20260510072928 | 45 | 70 | 8.0 | 11.0 | 0.00 | 0.00 | 0.00 | 96 | 1004.4 |
| 20260510072425 | 45 | 63 | 8.0 | 9.0 | 0.00 | 0.00 | 0.00 | 96 | 1004.7 |
| 20260510071920 | 45 | 65 | 5.0 | 8.0 | 0.00 | 0.00 | 0.00 | 96 | 1004.8 |
| 20260510071417 | 45 | 71 | 6.0 | 9.0 | 0.00 | 0.00 | 0.00 | 96 | 1004.8 |
| 20260510070916 | 45 | 65 | 5.0 | 11.0 | 0.00 | 0.00 | 0.00 | 96 | 1004.7 |
| 20260510070413 | 45 | 54 | 8.0 | 10.0 | 0.00 | 0.00 | 0.00 | 96 | 1004.6 |
| 20260510065908 | 45 | 73 | 6.0 | 9.0 | 0.00 | 0.00 | 0.00 | 96 | 1004.8 |
| 20260510065405 | 44 | 61 | 7.0 | 11.0 | 0.00 | 0.00 | 0.00 | 96 | 1005.0 |
| 20260510064901 | 44 | 63 | 6.0 | 9.0 | 0.00 | 0.00 | 0.00 | 96 | 1004.8 |
| 20260510064359 | 44 | 74 | 7.0 | 8.0 | 0.00 | 0.00 | 0.00 | 96 | 1004.8 |
| 20260510063855 | 44 | 70 | 7.0 | 8.0 | 0.00 | 0.00 | 0.00 | 96 | 1004.9 |
| 20260510063351 | 44 | 66 | 7.0 | 9.0 | 0.00 | 0.00 | 0.00 | 96 | 1004.8 |
| 20260510062848 | 44 | 59 | 6.0 | 9.0 | 0.00 | 0.00 | 0.00 | 96 | 1004.7 |
| 20260510062343 | 44 | 70 | 5.0 | 6.0 | 0.00 | 0.00 | 0.00 | 96 | 1004.8 |
| 20260510061839 | 44 | 98 | 5.0 | 6.0 | 0.00 | 0.00 | 0.00 | 96 | 1004.8 |
| 20260510061336 | 44 | 74 | 5.0 | 8.0 | 0.00 | 0.00 | 0.00 | 96 | 1004.9 |
| 20260510060832 | 44 | 47 | 7.0 | 9.0 | 0.00 | 0.00 | 0.00 | 96 | 1004.8 |
| 20260510060330 | 44 | 66 | 8.0 | 9.0 | 0.00 | 0.00 | 0.00 | 96 | 1004.8 |
| 20260510055826 | 44 | 62 | 6.0 | 11.0 | 0.00 | 0.00 | 0.00 | 96 | 1004.8 |
| 20260510055325 | 44 | 54 | 5.0 | 8.0 | 0.00 | 0.00 | 0.00 | 96 | 1004.9 |
| 20260510054824 | 44 | 102 | 3.0 | 3.0 | 0.00 | 0.00 | 0.00 | 96 | 1004.9 |
| 20260510054320 | 44 | 56 | 7.0 | 9.0 | 0.00 | 0.00 | 0.00 | 96 | 1005.0 |
| 20260510053815 | 44 | 56 | 4.0 | 6.0 | 0.00 | 0.00 | 0.00 | 96 | 1004.9 |
| 20260510053311 | 44 | 54 | 5.0 | 11.0 | 0.00 | 0.00 | 0.00 | 96 | 1004.9 |
| 20260510052808 | 45 | 59 | 8.0 | 9.0 | 0.00 | 0.00 | 0.00 | 96 | 1005.0 |
| 20260510052306 | 44 | 88 | 7.0 | 10.0 | 0.00 | 0.00 | 0.00 | 96 | 1005.0 |
| 20260510051800 | 44 | 54 | 5.0 | 10.0 | 0.00 | 0.00 | 0.00 | 96 | 1005.3 |
| 20260510051256 | 44 | 66 | 4.0 | 6.0 | 0.00 | 0.00 | 0.00 | 96 | 1005.2 |
| 20260510050753 | 44 | 69 | 6.0 | 7.0 | 0.00 | 0.00 | 0.00 | 96 | 1005.1 |
| 20260510050250 | 44 | 98 | 3.0 | 7.0 | 0.00 | 0.00 | 0.00 | 95 | 1005.2 |
| 20260510045747 | 44 | 77 | 4.0 | 7.0 | 0.00 | 0.00 | 0.00 | 95 | 1005.3 |
| 20260510045244 | 44 | 63 | 4.0 | 5.0 | 0.00 | 0.00 | 0.00 | 95 | 1004.9 |
| 20260510044741 | 44 | 81 | 5.0 | 6.0 | 0.00 | 0.00 | 0.00 | 95 | 1005.3 |
| 20260510044239 | 44 | 69 | 4.0 | 6.0 | 0.00 | 0.00 | 0.00 | 95 | 1005.0 |
| 20260510043733 | 44 | 69 | 5.0 | 5.0 | 0.00 | 0.00 | 0.00 | 95 | 1004.9 |
| 20260510043231 | 44 | 71 | 5.0 | 6.0 | 0.00 | 0.00 | 0.00 | 94 | 1004.7 |
| 20260510042728 | 44 | 86 | 4.0 | 8.0 | 0.00 | 0.00 | 0.00 | 94 | 1004.9 |
| 20260510042223 | 44 | 55 | 4.0 | 6.0 | 0.00 | 0.00 | 0.00 | 94 | 1005.1 |
| 20260510041721 | 44 | 77 | 5.0 | 6.0 | 0.00 | 0.00 | 0.00 | 94 | 1004.9 |
| 20260510041218 | 44 | 69 | 6.0 | 10.0 | 0.00 | 0.00 | 0.00 | 94 | 1005.0 |
| 20260510040715 | 44 | 76 | 4.0 | 6.0 | 0.00 | 0.00 | 0.00 | 94 | 1005.1 |
| 20260510040212 | 44 | 64 | 4.0 | 5.0 | 0.00 | 0.00 | 0.00 | 93 | 1005.5 |
| 20260510035707 | 45 | 65 | 5.0 | 7.0 | 0.00 | 0.02 | 0.02 | 93 | 1005.2 |
| 20260510035203 | 45 | 67 | 5.0 | 9.0 | 0.00 | 0.02 | 0.02 | 93 | 1005.4 |
| 20260510034659 | 45 | 78 | 3.0 | 5.0 | 0.00 | 0.02 | 0.02 | 93 | 1005.1 |
| 20260510034156 | 45 | 80 | 4.0 | 9.0 | 0.00 | 0.02 | 0.02 | 93 | 1005.2 |
| 20260510033653 | 45 | 81 | 3.0 | 7.0 | 0.00 | 0.02 | 0.02 | 93 | 1005.1 |
| 20260510033150 | 45 | 67 | 9.0 | 11.0 | 0.00 | 0.02 | 0.02 | 93 | 1005.0 |
| 20260510032647 | 45 | 96 | 4.0 | 6.0 | 0.00 | 0.02 | 0.02 | 93 | 1005.3 |
| 20260510032142 | 44 | 75 | 3.0 | 4.0 | 0.00 | 0.02 | 0.02 | 93 | 1005.1 |
| 20260510031637 | 44 | 125 | 0.0 | 4.0 | 0.00 | 0.02 | 0.02 | 93 | 1005.6 |
| 20260510031134 | 44 | 72 | 4.0 | 5.0 | 0.00 | 0.02 | 0.02 | 92 | 1005.3 |
| 20260510030628 | 45 | 68 | 4.0 | 5.0 | 0.00 | 0.02 | 0.02 | 93 | 1005.4 |
| 20260510030126 | 45 | 72 | 3.0 | 4.0 | 0.00 | 0.02 | 0.02 | 93 | 1005.2 |
| 20260510025623 | 45 | 106 | 3.0 | 5.0 | 0.00 | 0.02 | 0.02 | 93 | 1005.2 |
| 20260510025121 | 45 | 73 | 5.0 | 8.0 | 0.00 | 0.02 | 0.02 | 93 | 1005.2 |
| 20260510024617 | 45 | 66 | 4.0 | 5.0 | 0.00 | 0.02 | 0.02 | 92 | 1005.5 |
| 20260510024114 | 45 | 78 | 3.0 | 6.0 | 0.00 | 0.02 | 0.02 | 92 | 1005.4 |
| 20260510023609 | 45 | 76 | 4.0 | 5.0 | 0.00 | 0.02 | 0.02 | 92 | 1005.2 |
| 20260510023108 | 45 | 108 | 3.0 | 6.0 | 0.00 | 0.02 | 0.02 | 92 | 1005.4 |
| 20260510022607 | 45 | 63 | 6.0 | 11.0 | 0.00 | 0.02 | 0.02 | 92 | 1005.4 |
| 20260510022102 | 45 | 92 | 4.0 | 4.0 | 0.00 | 0.02 | 0.02 | 92 | 1005.3 |
| 20260510021553 | 45 | 60 | 6.0 | 8.0 | 0.00 | 0.02 | 0.02 | 92 | 1005.6 |
| 20260510021050 | 45 | 75 | 3.0 | 4.0 | 0.00 | 0.02 | 0.02 | 92 | 1005.6 |
| 20260510020544 | 45 | 111 | 4.0 | 5.0 | 0.00 | 0.02 | 0.02 | 92 | 1005.6 |
| 20260510020040 | 45 | 76 | 2.0 | 6.0 | 0.00 | 0.02 | 0.02 | 92 | 1005.6 |
| 20260510015536 | 45 | 82 | 5.0 | 9.0 | 0.00 | 0.02 | 0.02 | 92 | 1005.6 |
| 20260510015032 | 45 | 75 | 6.0 | 9.0 | 0.00 | 0.02 | 0.02 | 92 | 1005.7 |
| 20260510014528 | 45 | 49 | 7.0 | 7.0 | 0.00 | 0.02 | 0.02 | 92 | 1005.7 |
| 20260510014025 | 45 | 64 | 5.0 | 10.0 | 0.00 | 0.02 | 0.02 | 91 | 1005.6 |
| 20260510013521 | 45 | 108 | 5.0 | 5.0 | 0.00 | 0.02 | 0.02 | 91 | 1005.8 |
| 20260510013016 | 45 | 144 | 4.0 | 9.0 | 0.00 | 0.02 | 0.02 | 91 | 1006.0 |
| 20260510012511 | 45 | 78 | 4.0 | 6.0 | 0.00 | 0.02 | 0.02 | 91 | 1006.0 |
| 20260510012007 | 45 | 130 | 2.0 | 6.0 | 0.00 | 0.02 | 0.02 | 91 | 1006.1 |
| 20260510011502 | 45 | 91 | 4.0 | 4.0 | 0.00 | 0.02 | 0.02 | 91 | 1006.0 |
| 20260510010957 | 45 | 118 | 3.0 | 3.0 | 0.00 | 0.02 | 0.02 | 92 | 1005.9 |
| 20260510010455 | 45 | 115 | 3.0 | 5.0 | 0.00 | 0.02 | 0.02 | 92 | 1005.9 |
| 20260510005951 | 45 | 167 | 2.0 | 3.0 | 0.00 | 0.02 | 0.02 | 92 | 1005.9 |
| 20260510005447 | 45 | 75 | 5.0 | 6.0 | 0.00 | 0.02 | 0.02 | 92 | 1005.8 |
| 20260510004945 | 45 | 141 | 9.0 | 10.0 | 0.00 | 0.02 | 0.02 | 92 | 1005.8 |
| 20260510004442 | 45 | 85 | 6.0 | 8.0 | 0.00 | 0.02 | 0.02 | 92 | 1005.6 |
| 20260510003940 | 45 | 123 | 7.0 | 7.0 | 0.00 | 0.02 | 0.02 | 92 | 1005.5 |
| 20260510003437 | 45 | 96 | 4.0 | 8.0 | 0.00 | 0.02 | 0.02 | 92 | 1005.5 |
| 20260510002936 | 45 | 75 | 4.0 | 6.0 | 0.00 | 0.02 | 0.02 | 92 | 1005.6 |
| 20260510002433 | 45 | 113 | 5.0 | 5.0 | 0.00 | 0.02 | 0.02 | 92 | 1005.5 |
| 20260510001929 | 45 | 43 | 5.0 | 5.0 | 0.00 | 0.02 | 0.02 | 92 | 1005.4 |
| 20260510001427 | 45 | 127 | 3.0 | 4.0 | 0.00 | 0.02 | 0.02 | 91 | 1005.5 |
| 20260510000925 | 45 | 94 | 2.0 | 6.0 | 0.00 | 0.02 | 0.02 | 91 | 1005.3 |
| 20260510000421 | 45 | 74 | 5.0 | 6.0 | 0.00 | 0.02 | 0.02 | 91 | 1005.4 |
| 20260509235917 | 45 | 103 | 5.0 | 9.0 | 0.00 | 0.02 | 0.02 | 90 | 1005.4 |
| 20260509235415 | 45 | 40 | 8.0 | 9.0 | 0.00 | 0.02 | 0.02 | 90 | 1005.5 |
| 20260509234910 | 45 | 137 | 4.0 | 6.0 | 0.00 | 0.02 | 0.02 | 90 | 1005.3 |
| 20260509234408 | 45 | 119 | 4.0 | 9.0 | 0.00 | 0.02 | 0.02 | 90 | 1005.3 |
| 20260509233905 | 45 | 52 | 5.0 | 5.0 | 0.00 | 0.02 | 0.02 | 89 | 1005.4 |
| 20260509233402 | 45 | 216 | 1.0 | 5.0 | 0.00 | 0.02 | 0.02 | 89 | 1005.4 |
| 20260509232857 | 46 | 104 | 3.0 | 3.0 | 0.00 | 0.02 | 0.02 | 89 | 1005.4 |
| 20260509232357 | 46 | 144 | 5.0 | 6.0 | 0.00 | 0.02 | 0.02 | 89 | 1005.4 |
| 20260509231852 | 46 | 58 | 1.0 | 3.0 | 0.00 | 0.02 | 0.02 | 89 | 1005.4 |
| 20260509231349 | 46 | 84 | 4.0 | 6.0 | 0.00 | 0.02 | 0.02 | 89 | 1005.4 |
| 20260509230847 | 46 | 119 | 5.0 | 9.0 | 0.00 | 0.02 | 0.02 | 88 | 1005.3 |
| 20260509230343 | 46 | 114 | 2.0 | 6.0 | 0.00 | 0.02 | 0.02 | 88 | 1005.2 |
| 20260509225838 | 46 | 77 | 2.0 | 5.0 | 0.00 | 0.02 | 0.02 | 88 | 1005.3 |
| 20260509225336 | 46 | 165 | 0.0 | 9.0 | 0.00 | 0.02 | 0.02 | 88 | 1005.3 |
| 20260509224832 | 46 | 108 | 3.0 | 4.0 | 0.00 | 0.02 | 0.02 | 88 | 1005.4 |
| 20260509224328 | 46 | 108 | 7.0 | 11.0 | 0.00 | 0.02 | 0.02 | 88 | 1005.5 |
| 20260509223825 | 46 | 123 | 4.0 | 6.0 | 0.00 | 0.02 | 0.02 | 88 | 1005.5 |
| 20260509223322 | 46 | 138 | 8.0 | 9.0 | 0.00 | 0.02 | 0.02 | 87 | 1005.4 |
| 20260509222819 | 46 | 131 | 4.0 | 4.0 | 0.00 | 0.02 | 0.02 | 87 | 1005.4 |
| 20260509222314 | 46 | 155 | 6.0 | 11.0 | 0.00 | 0.02 | 0.02 | 87 | 1005.5 |
| 20260509221809 | 46 | 86 | 4.0 | 6.0 | 0.00 | 0.02 | 0.02 | 88 | 1005.7 |
| 20260509221307 | 46 | 97 | 4.0 | 9.0 | 0.00 | 0.02 | 0.02 | 88 | 1005.5 |
| 20260509220802 | 46 | 112 | 5.0 | 8.0 | 0.00 | 0.02 | 0.02 | 88 | 1005.5 |
| 20260509220259 | 46 | 132 | 4.0 | 5.0 | 0.00 | 0.02 | 0.02 | 88 | 1005.6 |
| 20260509215754 | 46 | 104 | 2.0 | 12.0 | 0.00 | 0.02 | 0.02 | 88 | 1005.8 |
| 20260509215251 | 46 | 143 | 2.0 | 11.0 | 0.00 | 0.02 | 0.02 | 88 | 1005.6 |
| 20260509214748 | 46 | 133 | 6.0 | 7.0 | 0.00 | 0.02 | 0.02 | 88 | 1005.6 |
| 20260509214245 | 46 | 108 | 6.0 | 7.0 | 0.00 | 0.02 | 0.02 | 88 | 1005.8 |
| 20260509213742 | 46 | 121 | 6.0 | 10.0 | 0.00 | 0.02 | 0.02 | 88 | 1005.9 |
| 20260509213238 | 46 | 71 | 5.0 | 8.0 | 0.00 | 0.02 | 0.02 | 88 | 1005.8 |
| 20260509212735 | 46 | 154 | 5.0 | 7.0 | 0.00 | 0.02 | 0.02 | 88 | 1005.9 |
| 20260509212233 | 46 | 91 | 3.0 | 9.0 | 0.00 | 0.02 | 0.02 | 88 | 1005.8 |
| 20260509211728 | 46 | 54 | 4.0 | 6.0 | 0.00 | 0.02 | 0.02 | 89 | 1005.8 |
| 20260509211225 | 46 | 64 | 6.0 | 9.0 | 0.00 | 0.02 | 0.02 | 88 | 1005.8 |
| 20260509210721 | 46 | 107 | 6.0 | 10.0 | 0.00 | 0.02 | 0.02 | 88 | 1006.1 |
| 20260509210219 | 46 | 121 | 8.0 | 13.0 | 0.00 | 0.02 | 0.02 | 88 | 1005.6 |
| 20260509205719 | 46 | 56 | 7.0 | 7.0 | 0.00 | 0.02 | 0.02 | 88 | 1005.7 |
| 20260509205218 | 45 | 116 | 6.0 | 11.0 | 0.00 | 0.02 | 0.02 | 87 | 1005.9 |
| 20260509204715 | 45 | 55 | 7.0 | 11.0 | 0.00 | 0.02 | 0.02 | 87 | 1005.9 |
| 20260509204211 | 46 | 147 | 5.0 | 12.0 | 0.00 | 0.02 | 0.02 | 87 | 1006.0 |
| 20260509203707 | 46 | 70 | 9.0 | 14.0 | 0.00 | 0.02 | 0.02 | 86 | 1006.0 |
| 20260509203206 | 46 | 54 | 13.0 | 14.0 | 0.00 | 0.02 | 0.02 | 86 | 1006.0 |
| 20260509202701 | 46 | 86 | 6.0 | 11.0 | 0.00 | 0.02 | 0.02 | 86 | 1006.0 |
| 20260509202156 | 46 | 105 | 8.0 | 14.0 | 0.00 | 0.02 | 0.02 | 86 | 1006.1 |
| 20260509201651 | 46 | 65 | 5.0 | 10.0 | 0.00 | 0.02 | 0.02 | 86 | 1006.2 |
| 20260509201149 | 46 | 101 | 8.0 | 11.0 | 0.00 | 0.02 | 0.02 | 86 | 1006.0 |
| 20260509200644 | 46 | 137 | 4.0 | 8.0 | 0.00 | 0.02 | 0.02 | 86 | 1006.1 |
| 20260509200140 | 46 | 95 | 6.0 | 13.0 | 0.00 | 0.02 | 0.02 | 86 | 1006.1 |
| 20260509195636 | 46 | 105 | 7.0 | 11.0 | 0.00 | 0.02 | 0.02 | 86 | 1006.2 |